Time;durP1;ratioP1;P1;durP2;ratioP2;P2;SDS_P1;SDS_P2;PMS_P1;PMS_P2;Temp;Humidity;BMP_temperature;BMP_pressure;BME280_temperature;BME280_humidity;BME280_pressure;Samples;Min_cycle;Max_cycle;Signal;HPM_P1;HPM_P2
2023/02/04 00:01:27;;;;;;;5.03;1.92;;;;;;;4.96;98.15;97053.88;5053528;28;20028;-78
2023/02/04 00:03:53;;;;;;;4.68;2.50;;;;;;;5.03;96.86;97042.06;5070314;28;20045;-78
2023/02/04 00:06:18;;;;;;;8.05;2.60;;;;;;;5.02;97.07;97048.28;5057753;28;20108;-77
2023/02/04 00:08:44;;;;;;;6.07;3.05;;;;;;;5.16;96.47;97053.81;5033600;28;20024;-77
2023/02/04 00:11:09;;;;;;;5.65;3.10;;;;;;;5.17;96.57;97045.75;5033440;28;20036;-77
2023/02/04 00:13:35;;;;;;;5.32;2.60;;;;;;;5.20;96.73;97050.91;5051590;28;20128;-76
2023/02/04 00:16:00;;;;;;;2.95;2.17;;;;;;;5.16;96.53;97044.06;5066512;28;20035;-76
2023/02/04 00:18:27;;;;;;;4.95;2.25;;;;;;;5.18;96.95;97028.06;5050501;28;20021;-76
2023/02/04 00:20:53;;;;;;;8.40;2.92;;;;;;;5.14;97.70;97039.75;5033354;28;20024;-77
2023/02/04 00:23:18;;;;;;;3.20;2.40;;;;;;;5.03;98.32;97036.75;5033600;28;20025;-77
2023/02/04 00:25:44;;;;;;;5.97;2.53;;;;;;;5.10;98.08;97038.19;5050167;28;20013;-76
2023/02/04 00:28:09;;;;;;;6.13;2.22;;;;;;;5.16;96.39;97027.28;5033382;28;20557;-77
2023/02/04 00:30:35;;;;;;;5.43;2.47;;;;;;;5.23;96.38;97034.84;5033978;28;20021;-77
2023/02/04 00:33:01;;;;;;;2.42;1.58;;;;;;;5.27;94.46;97022.31;5051382;28;20082;-77
2023/02/04 00:35:26;;;;;;;3.85;2.10;;;;;;;5.32;95.14;97030.91;5037722;28;20085;-77
2023/02/04 00:37:52;;;;;;;5.18;2.28;;;;;;;5.29;95.99;97029.25;5053508;28;20028;-76
2023/02/04 00:40:17;;;;;;;3.58;2.00;;;;;;;5.32;95.48;97009.69;5053214;28;20025;-77
2023/02/04 00:42:43;;;;;;;4.40;2.03;;;;;;;5.27;96.31;97025.81;5071331;28;20028;-76
2023/02/04 00:45:09;;;;;;;2.92;1.88;;;;;;;5.24;96.01;96998.59;5053213;28;20028;-75
2023/02/04 00:47:34;;;;;;;2.28;1.80;;;;;;;5.24;96.90;97003.91;5053377;28;20039;-76
2023/02/04 00:50:00;;;;;;;3.03;1.60;;;;;;;5.32;95.38;96989.31;5053160;28;20032;-76
2023/02/04 00:52:26;;;;;;;3.60;1.70;;;;;;;5.41;94.88;96995.97;5053217;28;20034;-76
2023/02/04 00:54:51;;;;;;;3.72;1.58;;;;;;;5.40;95.32;96989.81;5073079;28;20107;-77
2023/02/04 00:57:17;;;;;;;3.72;2.15;;;;;;;5.37;96.44;96989.97;5073586;28;20039;-77
2023/02/04 00:59:43;;;;;;;2.05;1.48;;;;;;;5.42;96.54;96993.25;5073688;28;20490;-75
2023/02/04 01:02:08;;;;;;;2.85;1.70;;;;;;;5.49;95.70;97007.06;5073438;28;20029;-76
2023/02/04 01:04:34;;;;;;;3.88;2.15;;;;;;;5.42;97.59;96997.69;5056690;28;20052;-78
2023/02/04 01:06:59;;;;;;;3.28;1.77;;;;;;;5.47;97.39;96995.66;5056651;28;20017;-76
2023/02/04 01:09:25;;;;;;;3.80;2.03;;;;;;;5.47;96.60;97006.28;5044867;28;20033;-75
2023/02/04 01:11:50;;;;;;;2.65;1.60;;;;;;;5.41;95.77;96990.69;5036650;28;20508;-78
2023/02/04 01:14:16;;;;;;;3.58;1.30;;;;;;;5.45;93.45;96992.22;5036793;28;20038;-76
2023/02/04 01:16:41;;;;;;;2.22;1.60;;;;;;;5.47;93.20;96990.38;5053299;28;20033;-76
2023/02/04 01:19:07;;;;;;;2.45;1.70;;;;;;;5.47;92.81;96979.75;5053274;28;20389;-76
2023/02/04 01:21:32;;;;;;;2.92;1.73;;;;;;;5.37;91.98;96970.53;5036552;28;20035;-75
2023/02/04 01:23:58;;;;;;;3.97;1.45;;;;;;;5.41;91.45;96969.47;5036677;28;20029;-77
2023/02/04 01:26:24;;;;;;;3.13;1.42;;;;;;;5.46;88.80;96964.78;5056064;28;20059;-78
2023/02/04 01:28:50;;;;;;;1.88;1.30;;;;;;;5.47;89.46;96962.03;5041943;28;20033;-77
2023/02/04 01:31:15;;;;;;;2.22;1.30;;;;;;;5.42;90.32;96965.84;5036213;28;20412;-76
2023/02/04 01:33:41;;;;;;;2.65;1.50;;;;;;;5.34;91.24;96973.34;5036242;28;20107;-77
2023/02/04 01:36:07;;;;;;;2.75;1.60;;;;;;;5.35;91.14;96970.59;5036320;28;20219;-77
2023/02/04 01:38:33;;;;;;;1.67;1.38;;;;;;;5.40;92.03;96986.31;5036284;28;20029;-77
2023/02/04 01:40:59;;;;;;;2.75;1.60;;;;;;;5.42;91.15;96949.94;5036108;28;20108;-76
2023/02/04 01:43:25;;;;;;;2.47;1.52;;;;;;;5.41;92.46;96970.28;5071624;28;20031;-75
2023/02/04 01:45:51;;;;;;;2.50;1.40;;;;;;;5.38;91.25;96965.16;5072834;28;20028;-78
2023/02/04 01:48:20;;;;;;;3.38;1.75;;;;;;;5.30;91.40;96954.09;5055841;28;20036;-77
2023/02/04 01:50:48;;;;;;;2.65;1.52;;;;;;;5.43;91.44;96967.59;5072998;28;20408;-76
2023/02/04 01:53:15;;;;;;;2.22;1.58;;;;;;;5.41;92.44;96958.84;5072575;28;20024;-76
2023/02/04 01:55:41;;;;;;;3.28;1.30;;;;;;;5.36;91.60;96956.44;5072591;28;20051;-76
2023/02/04 01:58:09;;;;;;;8.20;2.00;;;;;;;5.50;89.46;96961.03;5072716;28;20475;-77
2023/02/04 02:00:35;;;;;;;2.15;1.60;;;;;;;5.61;86.60;96949.84;5044352;28;20166;-77
2023/02/04 02:03:02;;;;;;;1.38;1.27;;;;;;;5.63;85.28;96951.50;5052346;28;20059;-77
2023/02/04 02:05:35;;;;;;;13.02;2.88;;;;;;;5.80;82.12;96938.22;5052191;28;20051;-75
2023/02/04 02:08:02;;;;;;;3.72;1.60;;;;;;;5.78;82.87;96939.25;5035843;28;20061;-77
2023/02/04 02:10:28;;;;;;;6.25;2.65;;;;;;;5.83;82.68;96953.97;5037605;28;20052;-77
2023/02/04 02:12:54;;;;;;;1.42;1.20;;;;;;;5.88;81.11;96949.31;5055561;28;20082;-77
2023/02/04 02:15:20;;;;;;;1.77;1.33;;;;;;;5.90;82.09;96942.13;5046641;28;20634;-77
2023/02/04 02:17:46;;;;;;;2.25;1.60;;;;;;;5.87;83.23;96944.97;5047928;28;20043;-77
2023/02/04 02:20:15;;;;;;;4.03;1.83;;;;;;;5.85;82.21;96937.94;5072193;28;20153;-77
2023/02/04 02:22:49;;;;;;;1.58;0.98;;;;;;;5.81;82.66;96939.94;5055185;28;20024;-77
2023/02/04 02:25:15;;;;;;;2.35;1.38;;;;;;;5.78;84.68;96937.41;5071843;28;20146;-77
2023/02/04 02:27:40;;;;;;;2.03;1.48;;;;;;;5.76;84.43;96944.63;5035562;28;20416;-77
2023/02/04 02:30:07;;;;;;;5.20;1.33;;;;;;;5.78;84.81;96952.50;5051954;28;20385;-75
2023/02/04 02:32:33;;;;;;;3.10;1.33;;;;;;;5.78;85.54;96940.06;5051807;28;20488;-75
2023/02/04 02:34:59;;;;;;;4.55;1.55;;;;;;;5.75;85.53;96942.88;5051780;28;20028;-76
2023/02/04 02:37:24;;;;;;;2.88;1.50;;;;;;;5.71;86.00;96933.41;5052019;28;20028;-77
2023/02/04 02:39:50;;;;;;;1.98;1.60;;;;;;;5.60;87.27;96927.78;5035171;28;20455;-77
2023/02/04 02:42:16;;;;;;;2.80;1.42;;;;;;;5.55;88.26;96919.22;5035224;28;20036;-75
2023/02/04 02:44:43;;;;;;;2.90;1.60;;;;;;;5.50;88.19;96926.56;5037793;28;21222;-75
2023/02/04 02:47:14;;;;;;;2.75;1.73;;;;;;;5.50;88.11;96909.78;5071618;28;20031;-77
2023/02/04 02:49:41;;;;;;;2.95;1.80;;;;;;;5.42;88.91;96912.81;5054687;28;20028;-76
2023/02/04 02:52:10;;;;;;;4.85;1.85;;;;;;;5.43;89.34;96925.16;5071638;28;20095;-77
2023/02/04 02:54:35;;;;;;;1.77;1.38;;;;;;;5.42;88.88;96910.16;5071557;28;20017;-76
2023/02/04 02:57:01;;;;;;;1.77;1.50;;;;;;;5.40;88.46;96898.78;5054674;28;20112;-76
2023/02/04 02:59:27;;;;;;;3.72;1.42;;;;;;;5.40;89.03;96912.06;5054558;28;20140;-77
2023/02/04 03:01:56;;;;;;;1.20;1.05;;;;;;;5.48;88.89;96912.50;5034906;28;20037;-78
2023/02/04 03:04:23;;;;;;;2.67;1.30;;;;;;;5.49;88.20;96908.94;5034979;28;20059;-77
2023/02/04 03:06:49;;;;;;;2.92;1.65;;;;;;;5.47;89.05;96905.50;5037375;28;20033;-76
2023/02/04 03:09:15;;;;;;;3.08;1.50;;;;;;;5.48;89.33;96904.53;5054681;28;20455;-76
2023/02/04 03:11:40;;;;;;;2.08;1.50;;;;;;;5.39;90.14;96903.25;5071192;28;20107;-77
2023/02/04 03:14:06;;;;;;;3.28;2.03;;;;;;;5.33;91.86;96908.84;5071095;28;20025;-79
2023/02/04 03:16:33;;;;;;;3.58;1.88;;;;;;;5.20;92.69;96894.50;5050355;28;20025;-78
2023/02/04 03:18:59;;;;;;;4.20;1.88;;;;;;;5.14;94.67;96908.06;5054890;28;20031;-78
2023/02/04 03:21:26;;;;;;;2.05;1.60;;;;;;;5.13;95.81;96911.69;5054129;28;20031;-77
2023/02/04 03:23:55;;;;;;;4.53;1.98;;;;;;;5.09;95.51;96915.41;5062273;28;20036;-75
2023/02/04 03:26:23;;;;;;;1.65;1.30;;;;;;;5.00;96.93;96891.16;5061333;28;20032;-76
2023/02/04 03:28:49;;;;;;;2.42;1.70;;;;;;;5.01;96.86;96887.59;5050856;28;20107;-76
2023/02/04 03:31:15;;;;;;;3.78;1.65;;;;;;;4.91;97.06;96877.47;5034527;28;20499;-76
2023/02/04 03:33:41;;;;;;;3.05;1.70;;;;;;;4.89;97.30;96876.66;5050620;28;20488;-76
2023/02/04 03:36:07;;;;;;;3.88;1.80;;;;;;;4.90;97.81;96896.94;5050684;28;20029;-75
2023/02/04 03:38:36;;;;;;;2.63;1.85;;;;;;;4.89;98.57;96900.50;5051926;28;20025;-75
2023/02/04 03:41:01;;;;;;;3.70;1.70;;;;;;;4.86;98.40;96899.81;5050512;28;20456;-76
2023/02/04 03:43:27;;;;;;;2.97;1.90;;;;;;;4.91;98.05;96898.66;5050505;28;20065;-76
2023/02/04 03:45:53;;;;;;;5.88;2.60;;;;;;;5.05;97.40;96897.94;5068025;28;20075;-75
2023/02/04 03:48:18;;;;;;;5.53;2.38;;;;;;;5.13;96.66;96892.28;5070506;28;20111;-76
2023/02/04 03:50:44;;;;;;;3.00;2.00;;;;;;;5.16;96.05;96887.66;5052979;28;20025;-76
2023/02/04 03:53:10;;;;;;;5.05;2.30;;;;;;;5.25;95.61;96883.69;5052566;28;20051;-76
2023/02/04 03:55:35;;;;;;;4.45;2.20;;;;;;;5.30;94.05;96879.84;5069667;28;20127;-78
2023/02/04 03:58:02;;;;;;;1.88;1.48;;;;;;;5.32;93.55;96870.00;5059427;28;20029;-76
2023/02/04 04:00:27;;;;;;;6.10;2.83;;;;;;;5.36;92.92;96870.72;5032740;28;20029;-76
2023/02/04 04:02:53;;;;;;;7.85;3.35;;;;;;;5.32;93.89;96867.38;5032581;28;20094;-76
2023/02/04 04:05:18;;;;;;;6.95;3.45;;;;;;;5.44;93.72;96873.84;5032887;28;20016;-77
2023/02/04 04:07:44;;;;;;;3.92;2.13;;;;;;;5.36;94.79;96866.28;5049524;28;20029;-78
2023/02/04 04:10:10;;;;;;;1.95;1.40;;;;;;;5.43;94.94;96880.94;5052185;28;20076;-78
2023/02/04 04:12:35;;;;;;;4.32;1.58;;;;;;;5.36;96.57;96866.28;5041222;28;20484;-78
2023/02/04 04:15:01;;;;;;;2.58;1.50;;;;;;;5.33;97.46;96871.75;5032916;28;20025;-78
2023/02/04 04:17:26;;;;;;;2.78;1.58;;;;;;;5.26;99.36;96869.50;5041537;28;20029;-77
2023/02/04 04:19:52;;;;;;;3.33;1.70;;;;;;;5.23;100.00;96859.06;5052897;28;20107;-78
2023/02/04 04:22:17;;;;;;;1.70;1.45;;;;;;;5.11;100.00;96849.06;5052455;28;20024;-77
2023/02/04 04:24:43;;;;;;;2.97;1.60;;;;;;;5.17;100.00;96849.59;5052358;28;20035;-77
2023/02/04 04:27:08;;;;;;;6.50;2.10;;;;;;;5.17;100.00;96854.91;5069679;28;20031;-76
2023/02/04 04:29:34;;;;;;;2.33;1.55;;;;;;;5.20;100.00;96864.53;5053152;28;20119;-77
2023/02/04 04:31:59;;;;;;;3.88;1.60;;;;;;;5.23;100.00;96867.84;5067576;28;20479;-76
2023/02/04 04:34:25;;;;;;;3.70;1.80;;;;;;;5.18;100.00;96850.47;5056274;28;20510;-76
2023/02/04 04:36:50;;;;;;;2.22;1.40;;;;;;;5.28;100.00;96851.72;5061151;28;20234;-77
2023/02/04 04:39:16;;;;;;;2.40;1.38;;;;;;;5.40;100.00;96853.72;5053181;28;20561;-78
2023/02/04 04:41:41;;;;;;;4.25;2.00;;;;;;;5.41;100.00;96858.09;5036258;28;20025;-77
2023/02/04 04:44:07;;;;;;;4.57;1.50;;;;;;;5.39;100.00;96855.50;5053265;28;20032;-76
2023/02/04 04:46:32;;;;;;;2.55;1.60;;;;;;;5.41;100.00;96863.41;5046310;28;20115;-77
2023/02/04 04:48:58;;;;;;;1.77;1.30;;;;;;;5.34;100.00;96865.50;5073135;28;20032;-77
2023/02/04 04:51:24;;;;;;;2.03;1.55;;;;;;;5.32;100.00;96864.72;5039552;28;20057;-77
2023/02/04 04:53:49;;;;;;;2.83;1.27;;;;;;;5.30;100.00;96860.44;5036106;28;20032;-78
2023/02/04 04:56:15;;;;;;;1.65;1.38;;;;;;;5.30;100.00;96874.56;5053162;28;20041;-76
2023/02/04 04:58:40;;;;;;;4.18;1.70;;;;;;;5.19;100.00;96868.09;5045874;28;20407;-77
2023/02/04 05:01:06;;;;;;;4.03;1.60;;;;;;;5.32;100.00;96870.00;5068455;28;20384;-77
2023/02/04 05:03:31;;;;;;;1.77;1.35;;;;;;;5.33;100.00;96882.34;5044222;28;20053;-77
2023/02/04 05:05:57;;;;;;;2.85;1.58;;;;;;;5.30;100.00;96877.19;5072569;28;20035;-77
2023/02/04 05:08:22;;;;;;;3.53;1.48;;;;;;;5.34;100.00;96875.25;5072542;28;20094;-77
2023/02/04 05:10:48;;;;;;;3.17;1.75;;;;;;;5.36;100.00;96874.22;5063999;28;20064;-77
2023/02/04 05:13:13;;;;;;;1.67;1.38;;;;;;;5.36;100.00;96883.97;5052630;28;20459;-77
2023/02/04 05:15:39;;;;;;;3.22;1.70;;;;;;;5.32;100.00;96872.66;5035908;28;20029;-78
2023/02/04 05:18:04;;;;;;;2.42;1.80;;;;;;;5.45;100.00;96875.53;5040136;28;20060;-79
2023/02/04 05:20:30;;;;;;;1.77;1.30;;;;;;;5.60;97.85;96874.72;5072893;28;20056;-78
2023/02/04 05:22:56;;;;;;;2.20;1.50;;;;;;;5.61;99.17;96876.44;5052986;28;20190;-77
2023/02/04 05:25:22;;;;;;;2.58;1.50;;;;;;;5.63;99.44;96887.00;5035616;28;20045;-77
2023/02/04 05:27:48;;;;;;;3.65;1.30;;;;;;;5.59;98.54;96878.34;5035373;28;20089;-78
2023/02/04 05:30:14;;;;;;;1.52;1.00;;;;;;;5.61;97.24;96881.75;5052261;28;20037;-78
2023/02/04 05:32:40;;;;;;;2.20;1.55;;;;;;;5.55;98.18;96892.69;5035419;28;20120;-77
2023/02/04 05:35:06;;;;;;;2.92;1.30;;;;;;;5.55;97.18;96887.38;5039084;28;20031;-78
2023/02/04 05:37:32;;;;;;;2.17;1.80;;;;;;;5.48;97.87;96891.28;5056652;28;20025;-77
2023/02/04 05:39:57;;;;;;;4.63;2.30;;;;;;;5.49;97.58;96893.00;5042700;28;20071;-78
2023/02/04 05:42:23;;;;;;;3.53;2.10;;;;;;;5.52;97.47;96881.38;5043734;28;20349;-78
2023/02/04 05:44:48;;;;;;;5.72;2.05;;;;;;;5.49;97.46;96885.06;5043373;28;20071;-78
2023/02/04 05:47:14;;;;;;;1.75;1.40;;;;;;;5.47;96.18;96879.00;5048189;28;20060;-79
2023/02/04 05:49:39;;;;;;;3.92;1.70;;;;;;;5.40;96.47;96874.94;5071937;28;20107;-78
2023/02/04 05:52:05;;;;;;;2.88;1.73;;;;;;;5.44;95.10;96884.44;5071714;28;20051;-77
2023/02/04 05:54:31;;;;;;;4.35;1.73;;;;;;;5.48;95.16;96885.97;5048486;28;20032;-78
2023/02/04 05:56:56;;;;;;;2.75;1.60;;;;;;;5.46;94.99;96894.03;5053451;28;20033;-78
2023/02/04 05:59:22;;;;;;;4.95;1.95;;;;;;;5.46;94.16;96887.88;5071794;28;20028;-78
2023/02/04 06:01:47;;;;;;;5.20;1.95;;;;;;;5.49;93.94;96893.00;5046663;28;20086;-78
2023/02/04 06:04:15;;;;;;;5.88;2.50;;;;;;;5.43;94.12;96893.34;5049426;28;20488;-80
2023/02/04 06:06:41;;;;;;;3.72;2.33;;;;;;;5.41;93.82;96879.31;5049312;28;20560;-85
2023/02/04 06:09:07;;;;;;;2.13;1.60;;;;;;;5.42;93.15;96871.25;5036781;28;20108;-87
2023/02/04 06:11:32;;;;;;;2.20;1.42;;;;;;;5.43;93.13;96882.72;5045217;28;20044;-86
2023/02/04 06:13:58;;;;;;;5.60;1.70;;;;;;;5.42;93.47;96881.00;5053532;28;20399;-76
2023/02/04 06:16:23;;;;;;;3.85;2.00;;;;;;;5.38;93.80;96882.13;5059406;28;20094;-86
2023/02/04 06:18:49;;;;;;;2.58;1.80;;;;;;;5.34;93.05;96867.31;5041939;28;20033;-82
2023/02/04 06:21:14;;;;;;;3.80;1.30;;;;;;;5.50;92.27;96883.25;5048512;28;20028;-83
2023/02/04 06:23:40;;;;;;;3.95;2.10;;;;;;;5.46;92.27;96872.81;5038647;28;20054;-84
2023/02/04 06:26:05;;;;;;;5.03;2.35;;;;;;;5.57;91.12;96874.88;5058647;28;20450;-87
2023/02/04 06:28:31;;;;;;;2.80;2.13;;;;;;;5.69;90.81;96878.72;5039243;28;20118;-86
2023/02/04 06:30:56;;;;;;;5.60;3.40;;;;;;;5.69;89.96;96879.53;5042691;28;20067;-81
2023/02/04 06:33:22;;;;;;;4.47;2.53;;;;;;;5.75;88.93;96871.25;5046261;28;20355;-88
2023/02/04 06:35:49;;;;;;;4.88;1.80;;;;;;;5.78;88.99;96879.03;5049564;28;20028;-84
2023/02/04 06:38:14;;;;;;;4.30;2.15;;;;;;;5.76;89.45;96886.25;5044195;28;20032;-88
2023/02/04 06:40:40;;;;;;;5.72;3.00;;;;;;;5.71;89.90;96872.38;5038912;28;20033;-86
2023/02/04 06:43:05;;;;;;;3.75;2.20;;;;;;;5.75;89.29;96875.72;5039233;28;20036;-85
2023/02/04 06:45:30;;;;;;;5.45;2.30;;;;;;;5.78;89.43;96887.00;5044096;28;20447;-86
2023/02/04 06:47:56;;;;;;;5.43;3.10;;;;;;;5.85;87.99;96884.88;5039239;28;20029;-86
2023/02/04 06:50:22;;;;;;;5.55;2.88;;;;;;;5.93;87.00;96875.63;5044177;28;20024;-87
2023/02/04 06:52:47;;;;;;;6.68;3.53;;;;;;;6.10;85.32;96874.69;5038918;28;20071;-86
2023/02/04 06:55:14;;;;;;;5.90;3.22;;;;;;;6.30;82.75;96893.03;5066991;28;20025;-87
2023/02/04 06:57:39;;;;;;;5.57;3.00;;;;;;;6.31;82.69;96891.22;5042852;28;20056;-86
2023/02/04 07:00:06;;;;;;;6.57;2.35;;;;;;;6.38;82.34;96885.50;5043368;28;20067;-88
2023/02/04 07:02:32;;;;;;;4.30;1.95;;;;;;;6.55;81.36;96897.84;5043224;28;20028;-85
2023/02/04 07:04:59;;;;;;;9.90;3.20;;;;;;;6.69;79.59;96887.28;5043058;28;20473;-85
2023/02/04 07:07:25;;;;;;;7.15;2.42;;;;;;;6.80;78.19;96876.88;5046600;28;20074;-84
2023/02/04 07:09:50;;;;;;;4.63;2.45;;;;;;;7.03;75.19;96863.13;5063418;28;20491;-87
2023/02/04 07:12:16;;;;;;;4.72;2.53;;;;;;;6.97;75.84;96865.28;5051961;28;20111;-86
2023/02/04 07:14:42;;;;;;;4.57;2.80;;;;;;;6.93;75.45;96867.25;5039896;28;20035;-86
2023/02/04 07:17:07;;;;;;;5.55;2.30;;;;;;;7.39;74.50;96877.81;5041542;28;20085;-86
2023/02/04 07:19:34;;;;;;;3.13;1.95;;;;;;;8.63;67.26;96885.97;5053621;28;20059;-85
2023/02/04 07:21:59;;;;;;;5.63;3.17;;;;;;;8.77;63.70;96867.25;5044197;28;20086;-86
2023/02/04 07:24:25;;;;;;;6.20;3.60;;;;;;;9.51;61.60;96862.22;5045250;28;20110;-86
2023/02/04 07:26:50;;;;;;;4.78;2.33;;;;;;;10.33;58.22;96868.00;5044616;28;20031;-86
2023/02/04 07:29:17;;;;;;;3.88;2.15;;;;;;;11.10;53.99;96845.34;5038501;28;20056;-84
2023/02/04 07:31:44;;;;;;;4.07;2.20;;;;;;;10.23;55.03;96808.16;5050497;28;20020;-87
2023/02/04 07:34:14;;;;;;;4.60;2.17;;;;;;;9.72;56.81;96804.66;5056206;28;20465;-88
2023/02/04 07:36:40;;;;;;;4.20;2.50;;;;;;;9.12;59.00;96799.09;5055818;28;20526;-87
2023/02/04 07:39:11;;;;;;;4.65;2.78;;;;;;;9.05;60.48;96816.47;5063904;28;20036;-86
2023/02/04 07:41:37;;;;;;;5.55;2.63;;;;;;;9.25;58.85;96802.66;5075379;28;20028;-87
2023/02/04 07:44:03;;;;;;;9.27;3.58;;;;;;;8.95;60.29;96788.69;5049249;28;20034;-86
2023/02/04 07:46:29;;;;;;;6.80;3.10;;;;;;;10.24;56.97;96828.53;5052337;28;20427;-85
2023/02/04 07:48:54;;;;;;;12.10;4.88;;;;;;;11.81;52.59;96828.28;5042566;28;20435;-88
2023/02/04 07:51:20;;;;;;;10.95;4.47;;;;;;;13.17;48.08;96800.13;5058302;28;20028;-89
2023/02/04 07:53:46;;;;;;;12.30;5.60;;;;;;;13.91;46.12;96791.00;5074814;28;20028;-92
2023/02/04 07:56:11;;;;;;;18.08;6.07;;;;;;;14.13;44.60;96770.16;5060947;28;20061;-85
2023/02/04 07:58:37;;;;;;;6.90;4.07;;;;;;;14.75;43.19;96776.28;5039931;28;20070;-87
2023/02/04 08:01:02;;;;;;;12.75;3.90;;;;;;;14.97;42.77;96774.19;5044398;28;20499;-87
2023/02/04 08:03:28;;;;;;;4.40;2.47;;;;;;;15.10;41.01;96763.97;5062351;28;20075;-87
2023/02/04 08:05:54;;;;;;;6.05;3.30;;;;;;;14.23;42.25;96737.91;5050892;28;20035;-87
2023/02/04 08:08:20;;;;;;;8.35;4.18;;;;;;;14.82;41.87;96755.91;5045366;28;20036;-86
2023/02/04 08:10:46;;;;;;;5.55;2.70;;;;;;;15.91;39.95;96770.69;5043935;28;20028;-86
2023/02/04 08:13:12;;;;;;;8.07;3.55;;;;;;;15.90;39.60;96760.91;5040160;28;20028;-89
2023/02/04 08:15:37;;;;;;;8.27;4.00;;;;;;;16.35;39.04;96752.06;5044905;28;20028;-88
2023/02/04 08:18:03;;;;;;;11.90;5.22;;;;;;;16.82;38.29;96761.75;5056066;28;20032;-87
2023/02/04 08:20:29;;;;;;;4.65;2.50;;;;;;;16.28;38.76;96735.59;5068919;28;20034;-87
2023/02/04 08:22:55;;;;;;;10.15;4.28;;;;;;;16.46;39.19;96749.13;5067404;28;20143;-87
2023/02/04 08:25:20;;;;;;;5.82;3.10;;;;;;;16.40;38.49;96731.69;5060465;28;20600;-86
2023/02/04 08:27:46;;;;;;;10.48;5.03;;;;;;;16.54;38.42;96744.75;5047985;28;20060;-88
2023/02/04 08:30:12;;;;;;;10.45;5.03;;;;;;;16.71;38.10;96726.84;5049304;28;20051;-87
2023/02/04 08:32:38;;;;;;;11.57;4.88;;;;;;;15.07;40.16;96696.91;5068815;28;20068;-86
2023/02/04 08:35:04;;;;;;;9.65;4.25;;;;;;;13.36;43.13;96682.94;5045567;28;20514;-83
2023/02/04 08:37:30;;;;;;;16.08;5.63;;;;;;;12.46;45.59;96676.34;5064039;28;20024;-86
2023/02/04 08:39:56;;;;;;;16.85;6.25;;;;;;;11.84;46.76;96680.66;5042586;28;20407;-83
2023/02/04 08:42:21;;;;;;;11.80;5.05;;;;;;;11.24;48.00;96675.63;5046364;28;20033;-86
2023/02/04 08:44:47;;;;;;;9.00;4.40;;;;;;;11.34;48.37;96690.88;5065103;28;20036;-85
2023/02/04 08:47:12;;;;;;;9.38;4.25;;;;;;;11.64;47.65;96708.16;5064050;28;20036;-86
2023/02/04 08:49:38;;;;;;;10.07;5.10;;;;;;;11.86;47.46;96708.19;5040845;28;20094;-84
2023/02/04 08:52:05;;;;;;;11.32;4.75;;;;;;;11.82;47.51;96690.63;5041865;28;20039;-87
2023/02/04 08:54:31;;;;;;;6.00;3.05;;;;;;;11.30;48.19;96688.53;5058699;28;20024;-86
2023/02/04 08:56:56;;;;;;;9.02;4.30;;;;;;;11.06;49.23;96696.66;5064782;28;20039;-84
2023/02/04 08:59:23;;;;;;;9.52;3.30;;;;;;;10.63;50.27;96706.28;5051998;28;20032;-85
2023/02/04 09:01:51;;;;;;;9.57;5.15;;;;;;;10.61;50.57;96706.38;5040632;28;20057;-88
2023/02/04 09:04:17;;;;;;;4.85;3.03;;;;;;;10.27;52.37;96710.72;5062452;28;20051;-87
2023/02/04 09:06:43;;;;;;;6.75;3.45;;;;;;;10.04;53.59;96706.19;5065400;28;20051;-85
2023/02/04 09:09:09;;;;;;;7.28;3.38;;;;;;;10.25;52.65;96710.00;5044034;28;20433;-86
2023/02/04 09:11:34;;;;;;;12.60;4.53;;;;;;;10.05;53.17;96713.25;5043851;28;20107;-88
2023/02/04 09:14:00;;;;;;;8.07;4.00;;;;;;;10.07;53.67;96718.47;5048450;28;20033;-86
2023/02/04 09:16:26;;;;;;;9.65;5.15;;;;;;;9.88;54.56;96720.78;5051615;28;20570;-87
2023/02/04 09:18:53;;;;;;;6.75;2.15;;;;;;;9.75;55.32;96720.84;5059326;28;20029;-86
2023/02/04 09:21:19;;;;;;;5.65;2.92;;;;;;;9.50;55.43;96707.53;5073583;28;20111;-86
2023/02/04 09:23:45;;;;;;;6.32;2.70;;;;;;;9.46;56.93;96714.88;5053559;28;20111;-87
2023/02/04 09:26:12;;;;;;;7.53;3.75;;;;;;;9.38;56.93;96716.41;5051731;28;20467;-87
2023/02/04 09:28:37;;;;;;;7.95;4.03;;;;;;;9.25;57.38;96717.25;5053158;28;20048;-89
2023/02/04 09:31:05;;;;;;;9.65;4.30;;;;;;;9.05;58.85;96711.59;5067678;28;20040;-82
2023/02/04 09:33:31;;;;;;;8.48;3.78;;;;;;;8.79;60.88;96723.19;5060039;28;20080;-87
2023/02/04 09:35:57;;;;;;;5.57;3.15;;;;;;;8.38;62.32;96728.63;5070285;28;20109;-88
2023/02/04 09:38:23;;;;;;;8.80;3.33;;;;;;;8.20;64.08;96722.69;5059535;28;20029;-87
2023/02/04 09:40:53;;;;;;;8.13;3.88;;;;;;;7.89;66.31;96707.84;5053589;28;20036;-88
2023/02/04 09:43:25;;;;;;;6.85;3.63;;;;;;;7.70;68.55;96728.63;5061451;28;20483;-86
2023/02/04 09:45:51;;;;;;;6.45;3.90;;;;;;;7.58;70.06;96738.25;5056675;28;20025;-87
2023/02/04 09:48:17;;;;;;;6.63;3.95;;;;;;;7.57;70.41;96735.66;5054430;28;20116;-88
2023/02/04 09:50:42;;;;;;;6.63;2.92;;;;;;;7.61;71.26;96747.84;5044393;28;20044;-86
2023/02/04 09:53:13;;;;;;;7.72;4.10;;;;;;;7.69;72.08;96756.19;5051281;28;20056;-87
2023/02/04 09:55:40;;;;;;;8.25;4.32;;;;;;;7.69;72.55;96752.69;5054695;28;20037;-85
2023/02/04 09:58:20;;;;;;;7.55;3.50;;;;;;;7.77;74.46;96775.19;5049841;28;20040;-86
2023/02/04 10:00:48;;;;;;;6.75;3.13;;;;;;;7.84;75.34;96776.53;5066621;28;20479;-85
2023/02/04 10:03:16;;;;;;;5.40;3.25;;;;;;;7.86;73.84;96773.75;5073353;28;20071;-84
2023/02/04 10:05:43;;;;;;;9.98;3.30;;;;;;;7.89;74.77;96779.75;5054461;28;20119;-85
2023/02/04 10:08:13;;;;;;;5.40;2.85;;;;;;;8.02;75.09;96786.00;5065958;28;20038;-85
2023/02/04 10:10:39;;;;;;;4.38;2.80;;;;;;;8.15;73.95;96781.56;5054283;28;20024;-86
2023/02/04 10:13:07;;;;;;;4.63;2.97;;;;;;;8.11;75.11;96785.41;5046724;28;20028;-83
2023/02/04 10:15:33;;;;;;;13.77;5.47;;;;;;;8.19;76.28;96793.75;5038179;28;20052;-85
2023/02/04 10:18:02;;;;;;;12.02;4.55;;;;;;;8.39;77.26;96797.84;5046656;28;20068;-84
2023/02/04 10:20:28;;;;;;;6.57;3.50;;;;;;;8.44;77.34;96790.38;5053207;28;20016;-85
2023/02/04 10:22:55;;;;;;;5.72;3.42;;;;;;;8.48;78.44;96788.38;5075981;28;20031;-83
2023/02/04 10:25:22;;;;;;;5.82;3.78;;;;;;;8.53;79.14;96787.09;5059838;28;20413;-85
2023/02/04 10:27:59;;;;;;;9.02;4.63;;;;;;;8.53;80.77;96791.56;5059469;28;20055;-87
2023/02/04 10:30:40;;;;;;;16.33;5.57;;;;;;;8.55;82.56;96800.34;5048270;28;20063;-85
2023/02/04 10:33:23;;;;;;;11.80;6.13;;;;;;;8.16;89.13;96815.25;5044552;28;20025;-84
2023/02/04 10:35:54;;;;;;;13.80;5.85;;;;;;;7.76;94.93;96820.53;5043430;28;20428;-86
2023/02/04 10:38:20;;;;;;;13.20;6.80;;;;;;;7.74;99.04;96819.78;5050239;28;20211;-86
2023/02/04 10:40:46;;;;;;;14.50;8.50;;;;;;;7.93;100.00;96834.53;5051480;28;20120;-86
2023/02/04 10:43:22;;;;;;;21.88;9.90;;;;;;;8.05;100.00;96835.53;5047443;28;20119;-87
2023/02/04 10:45:55;;;;;;;36.10;17.17;;;;;;;7.96;99.89;96829.00;5049381;28;20054;-84
2023/02/04 10:48:21;;;;;;;13.02;6.80;;;;;;;7.79;100.00;96821.19;5047476;28;20025;-85
2023/02/04 10:50:48;;;;;;;12.80;6.25;;;;;;;7.87;100.00;96834.91;5059226;28;20035;-85
2023/02/04 10:56:01;;;;;;;11.02;5.30;;;;;;;7.34;100.00;96822.25;5069323;28;20519;-82
2023/02/04 10:58:31;;;;;;;15.65;7.15;;;;;;;7.47;100.00;96841.84;5041360;28;20404;-83
2023/02/04 11:01:00;;;;;;;9.82;4.75;;;;;;;7.19;100.00;96828.50;5071605;28;20024;-84
2023/02/04 11:03:36;;;;;;;13.32;5.93;;;;;;;7.34;100.00;96846.19;5050016;28;20055;-84
2023/02/04 11:06:10;;;;;;;13.98;6.63;;;;;;;7.30;100.00;96839.31;5072260;28;20036;-84
2023/02/04 11:08:39;;;;;;;13.82;7.07;;;;;;;7.47;100.00;96846.28;5053755;28;20032;-84
2023/02/04 11:11:22;;;;;;;9.82;5.70;;;;;;;7.67;100.00;96855.69;5054027;28;20472;-83
2023/02/04 11:13:50;;;;;;;10.77;6.28;;;;;;;7.78;100.00;96847.94;5044634;28;20028;-84
2023/02/04 11:16:16;;;;;;;15.02;5.65;;;;;;;7.72;100.00;96846.47;5084281;28;20028;-84
2023/02/04 11:18:50;;;;;;;8.70;5.30;;;;;;;7.57;100.00;96839.44;5064183;28;20039;-84
2023/02/04 11:21:29;;;;;;;14.82;6.55;;;;;;;7.75;100.00;96856.97;5045685;28;20028;-83
2023/02/04 11:24:12;;;;;;;14.43;5.53;;;;;;;7.99;100.00;96854.56;5049388;28;20064;-85
2023/02/04 11:26:44;;;;;;;10.88;5.10;;;;;;;8.01;100.00;96853.53;5056711;28;20025;-85
2023/02/04 11:29:15;;;;;;;14.90;7.18;;;;;;;8.23;100.00;96857.47;5045809;28;20081;-85
2023/02/04 11:31:57;;;;;;;15.90;6.43;;;;;;;8.27;100.00;96853.69;5059751;28;20020;-86
2023/02/04 11:34:22;;;;;;;14.05;5.80;;;;;;;8.22;100.00;96850.44;5064311;28;20271;-84
2023/02/04 11:37:00;;;;;;;12.23;6.70;;;;;;;8.14;100.00;96849.13;5069738;28;20575;-84
2023/02/04 11:39:28;;;;;;;9.98;4.85;;;;;;;8.05;100.00;96841.72;5074889;28;20028;-87